Time;durP1;ratioP1;P1;durP2;ratioP2;P2;SDS_P1;SDS_P2;PMS_P1;PMS_P2;Temp;Humidity;BMP_temperature;BMP_pressure;BME280_temperature;BME280_humidity;BME280_pressure;Samples;Min_cycle;Max_cycle;Signal;HPM_P1;HPM_P2
2021/12/07 00:01:08;;;;;;;98.77;16.20;;;;;;;3.05;100.00;97405.13;5120413;28;20597;-68
2021/12/07 00:03:35;;;;;;;60.50;16.00;;;;;;;3.19;100.00;97404.66;5122845;28;20700;-67
2021/12/07 00:06:02;;;;;;;42.97;13.10;;;;;;;3.16;100.00;97405.13;5123579;28;20596;-66
2021/12/07 00:08:29;;;;;;;47.20;14.47;;;;;;;3.44;100.00;97403.66;5121843;28;20609;-66
2021/12/07 00:10:58;;;;;;;36.63;12.87;;;;;;;3.47;100.00;97395.25;5120175;28;20681;-67
2021/12/07 00:13:29;;;;;;;40.80;12.77;;;;;;;3.57;100.00;97391.03;5121211;28;20662;-67
2021/12/07 00:15:56;;;;;;;38.97;18.10;;;;;;;4.04;100.00;97393.59;5123815;28;20634;-66
2021/12/07 00:18:23;;;;;;;50.67;16.13;;;;;;;4.24;100.00;97394.78;5122573;28;20677;-66
2021/12/07 00:20:50;;;;;;;46.63;16.87;;;;;;;4.35;100.00;97393.97;5109260;28;20632;-68
2021/12/07 00:23:16;;;;;;;57.67;13.63;;;;;;;3.73;100.00;97408.00;5119792;28;20594;-66
2021/12/07 00:25:43;;;;;;;79.77;14.20;;;;;;;3.91;100.00;97414.97;5123464;28;20637;-66
2021/12/07 00:28:11;;;;;;;49.57;13.43;;;;;;;3.73;100.00;97408.00;5123366;28;20623;-66
2021/12/07 00:30:38;;;;;;;95.57;15.70;;;;;;;4.02;100.00;97406.25;5120284;28;20636;-66
2021/12/07 00:33:12;;;;;;;46.87;14.90;;;;;;;4.24;100.00;97408.00;5120026;28;20609;-67
2021/12/07 00:35:40;;;;;;;75.50;14.70;;;;;;;4.30;100.00;97409.69;5122748;28;21096;-67
2021/12/07 00:38:09;;;;;;;62.73;25.73;;;;;;;4.26;100.00;97405.94;5123317;28;20609;-67
2021/12/07 00:40:36;;;;;;;85.60;24.43;;;;;;;4.36;100.00;97410.63;5120540;28;20609;-67
2021/12/07 00:43:03;;;;;;;37.63;13.47;;;;;;;3.84;100.00;97401.09;5119819;28;20597;-67
2021/12/07 00:45:33;;;;;;;59.97;12.47;;;;;;;3.30;100.00;97397.00;5121226;28;20631;-67
2021/12/07 00:48:01;;;;;;;50.00;12.97;;;;;;;3.14;100.00;97399.28;5123066;28;21114;-67
2021/12/07 00:50:29;;;;;;;58.07;14.00;;;;;;;2.89;100.00;97409.22;5128278;28;20584;-66
2021/12/07 00:52:57;;;;;;;30.47;10.73;;;;;;;2.71;100.00;97406.66;5119470;28;20676;-68
2021/12/07 00:55:27;;;;;;;42.97;12.47;;;;;;;2.44;100.00;97408.06;5120211;28;20666;-67
2021/12/07 00:57:57;;;;;;;69.73;15.73;;;;;;;3.17;100.00;97395.38;5122789;28;20608;-67
2021/12/07 01:00:25;;;;;;;51.93;15.10;;;;;;;3.57;100.00;97401.59;5121777;28;20627;-66
2021/12/07 01:02:54;;;;;;;51.63;13.17;;;;;;;3.87;100.00;97406.72;5119298;28;20609;-66
2021/12/07 01:05:27;;;;;;;100.37;15.87;;;;;;;3.49;100.00;97398.50;5119620;28;20597;-67
2021/12/07 01:08:18;;;;;;;42.73;12.47;;;;;;;2.66;100.00;97393.34;5122706;28;20626;-66
2021/12/07 01:24:43;;;;;;;56.80;17.43;;;;;;;3.26;100.00;97386.09;5119978;28;20625;-66
2021/12/07 01:27:15;;;;;;;47.90;15.17;;;;;;;3.33;100.00;97391.25;5122142;28;20639;-67
2021/12/07 01:29:44;;;;;;;55.00;13.80;;;;;;;3.56;100.00;97386.00;5110344;28;20628;-67
2021/12/07 01:32:31;;;;;;;70.20;18.67;;;;;;;3.36;100.00;97388.97;5109985;28;20614;-68
2021/12/07 01:38:01;;;;;;;45.23;13.50;;;;;;;2.95;100.00;97378.50;5118598;28;20629;-67
2021/12/07 01:51:48;;;;;;;75.83;15.40;;;;;;;2.58;100.00;97344.38;5103232;28;20640;-66
2021/12/07 01:59:49;;;;;;;60.73;16.10;;;;;;;2.50;100.00;97341.28;5118462;28;20637;-67
2021/12/07 02:02:17;;;;;;;56.13;17.43;;;;;;;2.31;100.00;97339.72;5118319;28;20631;-66
2021/12/07 02:04:45;;;;;;;46.70;16.07;;;;;;;2.45;100.00;97341.13;5118414;28;20624;-66
2021/12/07 02:07:14;;;;;;;56.87;15.20;;;;;;;2.85;100.00;97334.22;5118295;28;20618;-67
2021/12/07 02:09:45;;;;;;;74.37;17.43;;;;;;;2.60;100.00;97346.81;5121580;28;20608;-66
2021/12/07 02:12:13;;;;;;;62.00;16.80;;;;;;;2.53;100.00;97351.38;5121883;28;20596;-66
2021/12/07 02:14:40;;;;;;;86.73;18.60;;;;;;;2.35;100.00;97346.97;5118600;28;20594;-66
2021/12/07 02:17:10;;;;;;;66.30;14.60;;;;;;;2.04;100.00;97350.59;5118184;28;20632;-67
2021/12/07 02:19:37;;;;;;;41.03;13.87;;;;;;;2.01;100.00;97347.63;5128089;28;21111;-67
2021/12/07 02:22:06;;;;;;;44.00;13.23;;;;;;;1.67;100.00;97350.88;5121783;28;20749;-66
2021/12/07 02:24:35;;;;;;;82.23;16.70;;;;;;;1.71;100.00;97349.41;5119285;28;20638;-67
2021/12/07 02:27:02;;;;;;;33.70;15.03;;;;;;;1.96;100.00;97355.38;5118244;28;20594;-67
2021/12/07 02:29:29;;;;;;;67.47;16.10;;;;;;;1.95;100.00;97346.66;5098911;28;21200;-66
2021/12/07 02:31:58;;;;;;;50.93;16.27;;;;;;;1.83;100.00;97345.81;5122169;28;20610;-66
2021/12/07 02:34:25;;;;;;;61.47;16.67;;;;;;;1.93;100.00;97340.81;5122740;28;20712;-67
2021/12/07 02:36:53;;;;;;;35.97;13.80;;;;;;;1.81;100.00;97337.34;5125729;28;20604;-66
2021/12/07 02:39:30;;;;;;;75.20;17.20;;;;;;;2.23;100.00;97330.28;5106947;28;20640;-67
2021/12/07 02:41:56;;;;;;;53.37;15.40;;;;;;;2.47;100.00;97325.91;5121983;28;20673;-66
2021/12/07 02:44:23;;;;;;;45.23;15.17;;;;;;;2.53;100.00;97322.38;5122426;28;20631;-67
2021/12/07 02:46:49;;;;;;;61.60;15.87;;;;;;;3.01;100.00;97316.91;5125331;28;20657;-66
2021/12/07 02:49:16;;;;;;;46.47;12.47;;;;;;;2.56;100.00;97319.28;5124989;28;20604;-67
2021/12/07 02:51:43;;;;;;;67.80;13.53;;;;;;;2.37;100.00;97307.19;5121667;28;20612;-66
2021/12/07 02:54:10;;;;;;;59.60;16.07;;;;;;;2.24;100.00;97310.03;5121468;28;20670;-67
2021/12/07 02:56:38;;;;;;;84.37;17.80;;;;;;;1.98;100.00;97296.19;5124358;28;20615;-66
2021/12/07 02:59:05;;;;;;;62.50;14.80;;;;;;;1.93;100.00;97303.97;5124954;28;20632;-66
2021/12/07 03:01:37;;;;;;;74.70;15.33;;;;;;;2.02;100.00;97291.28;5122792;28;20585;-67
2021/12/07 03:04:09;;;;;;;68.43;16.57;;;;;;;2.13;100.00;97287.91;5121542;28;20597;-66
2021/12/07 03:06:54;;;;;;;47.50;14.43;;;;;;;1.87;100.00;97283.78;5124077;28;20617;-67
2021/12/07 03:09:58;;;;;;;42.13;16.47;;;;;;;1.93;100.00;97279.47;5124291;28;21481;-67
2021/12/07 03:26:10;;;;;;;46.10;13.47;;;;;;;2.28;100.00;97293.56;5124482;28;20600;-66
2021/12/07 03:28:40;;;;;;;51.63;16.53;;;;;;;2.02;100.00;97300.00;5121697;28;20604;-66
2021/12/07 03:31:07;;;;;;;45.33;13.47;;;;;;;2.33;100.00;97306.84;5121011;28;20613;-66
2021/12/07 03:33:36;;;;;;;48.13;13.70;;;;;;;2.07;100.00;97300.13;5123300;28;20619;-65
2021/12/07 03:36:05;;;;;;;42.03;13.03;;;;;;;2.20;100.00;97307.03;5124042;28;20620;-66
2021/12/07 03:38:32;;;;;;;63.53;13.57;;;;;;;2.58;100.00;97304.03;5122167;28;20600;-66
2021/12/07 03:40:59;;;;;;;27.53;10.60;;;;;;;2.22;100.00;97301.56;5120043;28;20670;-66
2021/12/07 03:43:26;;;;;;;67.33;15.00;;;;;;;2.14;100.00;97305.28;5103698;28;20605;-66
2021/12/07 03:45:54;;;;;;;66.33;13.50;;;;;;;2.03;100.00;97298.16;5124259;28;20657;-66
2021/12/07 03:48:21;;;;;;;69.80;14.40;;;;;;;2.06;100.00;97303.00;5123520;28;20592;-67
2021/12/07 03:50:47;;;;;;;49.50;15.30;;;;;;;2.24;100.00;97305.56;5127873;28;20605;-66
2021/12/07 03:53:15;;;;;;;57.50;13.90;;;;;;;2.21;100.00;97300.75;5120424;28;20678;-66
2021/12/07 03:55:42;;;;;;;60.43;13.60;;;;;;;2.39;100.00;97308.59;5105830;28;20596;-67
2021/12/07 03:58:09;;;;;;;71.43;15.30;;;;;;;2.43;100.00;97315.00;5123860;28;20601;-66
2021/12/07 04:00:40;;;;;;;71.67;15.30;;;;;;;2.00;100.00;97314.41;5121072;28;20704;-65
2021/12/07 04:03:11;;;;;;;68.70;14.67;;;;;;;1.94;100.00;97310.03;5120168;28;20605;-66
2021/12/07 04:05:45;;;;;;;55.67;15.37;;;;;;;2.02;100.00;97309.72;5122934;28;20683;-66
2021/12/07 04:08:12;;;;;;;42.33;13.37;;;;;;;1.90;100.00;97319.41;5123592;28;20635;-66
2021/12/07 04:10:38;;;;;;;62.67;15.60;;;;;;;1.88;100.00;97308.31;5120670;28;20623;-66
2021/12/07 04:13:05;;;;;;;76.00;15.63;;;;;;;1.92;100.00;97322.63;5120014;28;20634;-66
2021/12/07 04:15:32;;;;;;;52.17;15.30;;;;;;;1.98;100.00;97313.84;5121979;28;20639;-66
2021/12/07 04:17:59;;;;;;;46.80;12.30;;;;;;;1.75;100.00;97311.91;5123567;28;20614;-66
2021/12/07 04:20:27;;;;;;;59.00;13.77;;;;;;;1.62;100.00;97312.06;5129091;28;20635;-67
2021/12/07 04:22:54;;;;;;;52.23;12.43;;;;;;;1.67;100.00;97309.59;5119957;28;20597;-67
2021/12/07 04:25:23;;;;;;;112.40;16.70;;;;;;;1.84;100.00;97328.19;5120073;28;20673;-67
2021/12/07 04:27:51;;;;;;;55.37;13.03;;;;;;;1.67;100.00;97314.03;5123094;28;20593;-67
2021/12/07 04:30:20;;;;;;;63.00;15.93;;;;;;;1.47;100.00;97320.31;5122789;28;20608;-66
2021/12/07 04:32:47;;;;;;;69.67;15.60;;;;;;;2.02;100.00;97305.25;5119462;28;20605;-67
2021/12/07 04:35:15;;;;;;;68.13;15.03;;;;;;;1.89;100.00;97312.56;5119118;28;20640;-66
2021/12/07 04:37:44;;;;;;;45.73;12.40;;;;;;;1.48;100.00;97316.69;5122966;28;20635;-67
2021/12/07 04:40:13;;;;;;;77.10;13.93;;;;;;;1.65;100.00;97311.59;5122920;28;20651;-66
2021/12/07 04:42:41;;;;;;;69.93;14.50;;;;;;;2.14;100.00;97306.09;5119835;28;20594;-66
2021/12/07 04:45:13;;;;;;;36.73;12.97;;;;;;;2.13;100.00;97301.88;5119491;28;20685;-66
2021/12/07 04:47:50;;;;;;;55.83;13.50;;;;;;;2.00;100.00;97304.69;5122485;28;20613;-66
2021/12/07 04:50:41;;;;;;;50.27;13.73;;;;;;;1.90;100.00;97304.41;5130179;28;20612;-67
2021/12/07 04:58:39;;;;;;;69.27;14.03;;;;;;;1.74;100.00;97314.75;5122222;28;20635;-66
2021/12/07 05:01:10;;;;;;;53.57;11.97;;;;;;;1.56;100.00;97302.41;5122611;28;20648;-66
2021/12/07 05:03:37;;;;;;;48.20;13.97;;;;;;;1.63;100.00;97309.22;5119921;28;20624;-67
2021/12/07 05:06:06;;;;;;;64.00;14.27;;;;;;;1.50;100.00;97313.81;5119131;28;20605;-66
2021/12/07 05:08:40;;;;;;;30.90;12.33;;;;;;;1.56;100.00;97300.59;5121220;28;20641;-67
2021/12/07 05:14:11;;;;;;;37.43;12.00;;;;;;;1.37;100.00;97300.81;5099696;28;20625;-67
2021/12/07 05:16:53;;;;;;;47.20;12.40;;;;;;;1.38;100.00;97305.03;5110272;28;20606;-66
2021/12/07 05:25:18;;;;;;;45.73;12.00;;;;;;;1.51;100.00;97310.16;5099475;28;20614;-66
2021/12/07 05:39:01;;;;;;;69.03;12.37;;;;;;;1.66;100.00;97315.06;5049783;28;20636;-66
2021/12/07 05:41:29;;;;;;;61.50;12.07;;;;;;;1.60;100.00;97316.75;5109652;28;20683;-67
2021/12/07 05:43:56;;;;;;;34.37;10.93;;;;;;;1.50;100.00;97313.81;5110253;28;20643;-66
2021/12/07 05:46:23;;;;;;;65.37;13.50;;;;;;;1.46;100.00;97308.19;5109876;28;20605;-67
2021/12/07 05:48:49;;;;;;;32.83;10.63;;;;;;;1.41;100.00;97309.88;5113368;28;20635;-67
2021/12/07 05:51:16;;;;;;;56.50;13.60;;;;;;;1.40;100.00;97313.50;5121834;28;20601;-66
2021/12/07 05:53:43;;;;;;;82.33;13.73;;;;;;;1.48;100.00;97315.88;5109921;28;20601;-67
2021/12/07 05:56:09;;;;;;;73.27;13.07;;;;;;;1.78;100.00;97327.25;5091763;28;20597;-66
2021/12/07 05:58:37;;;;;;;46.70;10.60;;;;;;;1.75;100.00;97317.16;5109580;28;21466;-67
2021/12/07 06:01:04;;;;;;;84.63;13.83;;;;;;;1.48;100.00;97326.41;5109588;28;20667;-66
2021/12/07 06:03:31;;;;;;;93.23;13.40;;;;;;;1.68;100.00;97323.53;5109359;28;20619;-67
2021/12/07 06:06:01;;;;;;;95.80;13.80;;;;;;;1.68;100.00;97326.16;5113001;28;20616;-66
2021/12/07 06:08:28;;;;;;;43.80;10.93;;;;;;;1.62;100.00;97333.09;5113922;28;20617;-67
2021/12/07 06:10:55;;;;;;;54.43;13.23;;;;;;;1.54;100.00;97336.03;5113694;28;20620;-67
2021/12/07 06:13:21;;;;;;;78.90;14.20;;;;;;;1.95;100.00;97338.00;5113566;28;20597;-66
2021/12/07 06:15:50;;;;;;;63.57;13.10;;;;;;;2.10;100.00;97333.13;5113766;28;20770;-66
2021/12/07 06:18:17;;;;;;;41.60;10.13;;;;;;;2.08;100.00;97329.91;5113605;28;20667;-66
2021/12/07 06:20:44;;;;;;;91.23;12.93;;;;;;;1.87;100.00;97331.19;5129342;28;20644;-66
2021/12/07 06:23:11;;;;;;;55.40;12.57;;;;;;;1.91;100.00;97327.09;5121957;28;20666;-66
2021/12/07 06:25:38;;;;;;;34.73;9.20;;;;;;;2.14;100.00;97323.72;5124904;28;20634;-66
2021/12/07 06:28:05;;;;;;;63.20;11.30;;;;;;;2.22;100.00;97322.63;5125705;28;20591;-67
2021/12/07 06:30:32;;;;;;;65.57;11.13;;;;;;;2.18;100.00;97332.81;5123501;28;20604;-67
2021/12/07 06:33:00;;;;;;;59.43;9.77;;;;;;;2.34;100.00;97339.28;5121989;28;20597;-67
2021/12/07 06:35:27;;;;;;;57.77;10.33;;;;;;;2.67;100.00;97331.66;5122889;28;20643;-66
2021/12/07 06:37:53;;;;;;;79.00;10.93;;;;;;;2.84;100.00;97331.81;5125408;28;20604;-66
2021/12/07 06:40:20;;;;;;;107.73;11.30;;;;;;;2.94;100.00;97330.22;5124701;28;20617;-67
2021/12/07 06:42:47;;;;;;;62.87;9.93;;;;;;;2.92;100.00;97331.47;5121848;28;20597;-67
2021/12/07 06:45:13;;;;;;;59.07;9.83;;;;;;;3.00;100.00;97331.94;5121519;28;20600;-66
2021/12/07 06:47:41;;;;;;;47.97;8.37;;;;;;;3.09;100.00;97332.41;5124821;28;21181;-66
2021/12/07 06:50:11;;;;;;;32.53;7.07;;;;;;;3.17;100.00;97338.16;5132249;28;20642;-67
2021/12/07 06:52:39;;;;;;;54.20;7.80;;;;;;;3.24;100.00;97346.75;5122019;28;20601;-67
2021/12/07 06:55:07;;;;;;;17.33;5.13;;;;;;;3.30;100.00;97337.09;5121636;28;20605;-67
2021/12/07 06:57:34;;;;;;;43.17;8.07;;;;;;;3.32;100.00;97345.59;5123837;28;20627;-67
2021/12/07 07:00:00;;;;;;;50.53;8.13;;;;;;;3.33;100.00;97344.56;5106845;28;20639;-67
2021/12/07 07:02:27;;;;;;;69.17;9.87;;;;;;;3.29;100.00;97346.06;5123275;28;20603;-66
2021/12/07 07:04:54;;;;;;;35.23;7.90;;;;;;;3.30;100.00;97363.50;5121229;28;20605;-67
2021/12/07 07:07:22;;;;;;;68.90;10.83;;;;;;;3.34;100.00;97343.53;5121407;28;20589;-66
2021/12/07 07:09:49;;;;;;;88.60;11.23;;;;;;;3.30;100.00;97345.03;5124669;28;20600;-68
2021/12/07 07:12:16;;;;;;;56.33;8.13;;;;;;;3.35;100.00;97353.03;5124463;28;20604;-67
2021/12/07 07:14:43;;;;;;;43.60;8.73;;;;;;;3.26;100.00;97359.72;5120986;28;20654;-66
2021/12/07 07:17:10;;;;;;;83.67;10.10;;;;;;;3.28;100.00;97364.75;5119723;28;20597;-66
2021/12/07 07:19:36;;;;;;;56.57;8.57;;;;;;;3.30;100.00;97360.06;5130836;28;20635;-66
2021/12/07 07:22:03;;;;;;;55.57;8.63;;;;;;;3.17;100.00;97361.88;5124286;28;20636;-66
2021/12/07 07:24:33;;;;;;;75.73;10.00;;;;;;;3.17;100.00;97359.25;5122199;28;20820;-66
2021/12/07 07:27:01;;;;;;;72.83;9.80;;;;;;;3.15;100.00;97356.06;5120740;28;20616;-67
2021/12/07 07:29:27;;;;;;;65.23;9.47;;;;;;;3.29;100.00;97364.53;5121855;28;20605;-66
2021/12/07 07:31:54;;;;;;;86.80;10.30;;;;;;;3.29;100.00;97367.16;5124083;28;20605;-66
2021/12/07 07:34:21;;;;;;;103.93;13.27;;;;;;;3.33;100.00;97370.16;5123293;28;20600;-67
2021/12/07 07:36:47;;;;;;;63.63;9.83;;;;;;;3.39;100.00;97371.88;5120648;28;20605;-66
2021/12/07 07:39:14;;;;;;;35.67;9.33;;;;;;;3.39;100.00;97362.13;5102514;28;21345;-67
2021/12/07 07:41:42;;;;;;;56.43;8.03;;;;;;;3.28;100.00;97365.53;5123507;28;20658;-67
2021/12/07 07:44:09;;;;;;;38.10;8.00;;;;;;;3.32;100.00;97371.16;5124049;28;20679;-67
2021/12/07 07:46:35;;;;;;;68.10;8.93;;;;;;;3.32;100.00;97374.63;5121305;28;20626;-67
2021/12/07 07:49:04;;;;;;;47.90;8.90;;;;;;;3.32;100.00;97376.44;5125416;28;20604;-66
2021/12/07 07:51:31;;;;;;;53.17;10.80;;;;;;;3.23;100.00;97378.63;5123868;28;20601;-67
2021/12/07 07:53:59;;;;;;;62.70;9.67;;;;;;;3.32;100.00;97384.38;5123962;28;20654;-67
2021/12/07 07:56:26;;;;;;;36.67;8.37;;;;;;;3.26;100.00;97383.44;5122600;28;20592;-67
2021/12/07 07:58:54;;;;;;;62.97;9.40;;;;;;;3.31;100.00;97375.66;5120178;28;20594;-67
2021/12/07 08:01:23;;;;;;;58.03;9.97;;;;;;;3.31;100.00;97385.41;5120447;28;20789;-67
2021/12/07 08:03:50;;;;;;;39.63;8.23;;;;;;;3.28;100.00;97376.91;5123813;28;20616;-66
2021/12/07 08:06:16;;;;;;;73.93;10.00;;;;;;;3.27;100.00;97377.16;5123438;28;20616;-67
2021/12/07 08:08:43;;;;;;;33.47;8.43;;;;;;;3.18;100.00;97379.34;5111465;28;20612;-66
2021/12/07 08:11:10;;;;;;;49.23;9.10;;;;;;;3.15;100.00;97377.16;5111670;28;20597;-66
2021/12/07 08:13:37;;;;;;;61.93;9.40;;;;;;;3.37;100.00;97379.22;5111400;28;20601;-66
2021/12/07 08:16:05;;;;;;;48.53;9.03;;;;;;;3.20;100.00;97379.91;5111411;28;20662;-66
2021/12/07 08:18:32;;;;;;;39.27;8.73;;;;;;;3.17;100.00;97385.63;5111987;28;20619;-66
2021/12/07 08:20:59;;;;;;;45.73;8.07;;;;;;;3.18;100.00;97381.97;5126010;28;20645;-66
2021/12/07 08:23:25;;;;;;;68.10;9.40;;;;;;;3.14;100.00;97395.84;5120810;28;20594;-67
2021/12/07 08:25:52;;;;;;;52.07;9.43;;;;;;;3.08;100.00;97397.56;5123321;28;20592;-67
2021/12/07 08:28:19;;;;;;;41.97;7.87;;;;;;;3.23;100.00;97400.56;5122642;28;20608;-67
2021/12/07 08:30:48;;;;;;;77.60;9.60;;;;;;;3.23;100.00;97405.81;5119774;28;20692;-67
2021/12/07 08:33:17;;;;;;;43.23;6.93;;;;;;;3.17;100.00;97400.66;5119499;28;20595;-67
2021/12/07 08:35:43;;;;;;;33.23;7.60;;;;;;;3.17;100.00;97403.28;5110720;28;20625;-67
2021/12/07 08:38:10;;;;;;;35.17;7.17;;;;;;;3.23;100.00;97394.47;5110926;28;20606;-67
2021/12/07 08:40:39;;;;;;;34.47;7.60;;;;;;;3.28;100.00;97411.22;5110753;28;20988;-68
2021/12/07 08:43:07;;;;;;;53.47;8.40;;;;;;;3.25;100.00;97400.31;5110746;28;20693;-67
2021/12/07 08:45:34;;;;;;;98.37;8.50;;;;;;;3.30;100.00;97408.34;5110718;28;20627;-67
2021/12/07 08:48:03;;;;;;;46.77;7.73;;;;;;;3.33;100.00;97415.81;5111028;28;21522;-67
2021/12/07 08:50:32;;;;;;;74.40;9.23;;;;;;;3.35;100.00;97415.56;5126418;28;20597;-68
2021/12/07 08:53:03;;;;;;;44.13;8.30;;;;;;;3.39;100.00;97404.34;5119094;28;20612;-67
2021/12/07 09:01:02;;;;;;;45.70;7.33;;;;;;;3.49;100.00;97420.41;5118911;28;21327;-67
2021/12/07 09:03:29;;;;;;;69.03;8.53;;;;;;;3.50;100.00;97431.75;5120472;28;20600;-66
2021/12/07 09:05:57;;;;;;;32.17;6.70;;;;;;;3.59;100.00;97433.81;5122415;28;20600;-67
2021/12/07 09:08:24;;;;;;;42.57;7.17;;;;;;;3.68;100.00;97431.66;5121316;28;20596;-67
2021/12/07 09:10:52;;;;;;;26.60;6.67;;;;;;;3.63;100.00;97434.97;5118932;28;20597;-67
2021/12/07 09:13:20;;;;;;;40.90;6.30;;;;;;;3.64;100.00;97441.88;5118734;28;20620;-68
2021/12/07 09:15:46;;;;;;;84.30;9.63;;;;;;;3.72;100.00;97446.00;5122465;28;21199;-67
2021/12/07 09:18:13;;;;;;;59.27;7.37;;;;;;;3.75;100.00;97450.81;5104148;28;20596;-67
2021/12/07 09:20:40;;;;;;;55.83;7.07;;;;;;;3.69;100.00;97449.09;5126357;28;20641;-67
2021/12/07 09:23:08;;;;;;;44.13;6.93;;;;;;;3.72;100.00;97451.28;5118711;28;20608;-68
2021/12/07 09:25:35;;;;;;;66.47;8.47;;;;;;;3.73;100.00;97450.25;5121015;28;20613;-67
2021/12/07 09:28:02;;;;;;;31.13;6.33;;;;;;;3.83;100.00;97458.41;5122276;28;20637;-67
2021/12/07 09:30:28;;;;;;;115.93;10.03;;;;;;;3.84;100.00;97460.00;5120428;28;20600;-67
2021/12/07 09:32:55;;;;;;;51.97;7.33;;;;;;;3.84;100.00;97464.50;5118671;28;20602;-67
2021/12/07 09:35:23;;;;;;;31.10;6.63;;;;;;;3.72;100.00;97457.38;5118405;28;20621;-67
2021/12/07 09:37:51;;;;;;;58.47;7.00;;;;;;;3.71;100.00;97460.25;5121918;28;20616;-67
2021/12/07 09:40:20;;;;;;;52.93;6.13;;;;;;;3.65;100.00;97467.22;5121432;28;20593;-67
2021/12/07 09:42:48;;;;;;;103.50;8.83;;;;;;;3.57;100.00;97458.84;5118408;28;20641;-66
2021/12/07 09:45:18;;;;;;;32.57;5.53;;;;;;;3.72;100.00;97475.03;5118434;28;20629;-67
2021/12/07 09:47:46;;;;;;;87.63;8.27;;;;;;;3.82;100.00;97467.34;5118482;28;20598;-68
2021/12/07 09:50:17;;;;;;;51.80;6.77;;;;;;;3.65;100.00;97471.72;5126023;28;20604;-67
2021/12/07 09:52:44;;;;;;;76.50;8.37;;;;;;;3.62;100.00;97466.91;5109968;28;20619;-66
2021/12/07 09:55:12;;;;;;;69.50;7.23;;;;;;;3.72;100.00;97475.03;5110074;28;21295;-67
2021/12/07 09:57:40;;;;;;;84.07;8.07;;;;;;;3.70;100.00;97469.19;5109765;28;20646;-66
2021/12/07 10:00:10;;;;;;;41.97;5.27;;;;;;;3.62;100.00;97451.84;5109610;28;20639;-68
2021/12/07 10:02:37;;;;;;;53.63;6.17;;;;;;;3.74;100.00;97465.06;5109459;28;20671;-67
2021/12/07 10:05:05;;;;;;;37.20;5.90;;;;;;;3.72;100.00;97465.28;5109902;28;20601;-68
2021/12/07 10:07:32;;;;;;;69.43;7.27;;;;;;;3.88;100.00;97458.50;5109556;28;20631;-67
2021/12/07 10:09:59;;;;;;;26.70;3.90;;;;;;;3.90;100.00;97461.72;5109712;28;20606;-67
2021/12/07 10:12:28;;;;;;;30.30;4.90;;;;;;;3.74;100.00;97459.78;5109542;28;20601;-67
2021/12/07 10:14:56;;;;;;;45.73;5.93;;;;;;;3.83;100.00;97449.69;5109915;28;20639;-67
2021/12/07 10:17:23;;;;;;;79.93;7.27;;;;;;;3.80;100.00;97458.88;5109490;28;21247;-67
2021/12/07 10:19:50;;;;;;;41.10;5.13;;;;;;;3.87;100.00;97456.88;5122533;28;20608;-68
2021/12/07 10:22:21;;;;;;;46.47;6.23;;;;;;;3.62;100.00;97457.13;5121363;28;20644;-67
2021/12/07 10:24:50;;;;;;;20.03;3.30;;;;;;;3.74;100.00;97457.94;5117989;28;20609;-68
2021/12/07 10:27:32;;;;;;;28.10;4.67;;;;;;;3.67;100.00;97454.63;5117822;28;20609;-67
2021/12/07 10:30:01;;;;;;;22.43;4.30;;;;;;;3.78;100.00;97450.34;5109676;28;20623;-68
2021/12/07 10:32:28;;;;;;;60.40;6.90;;;;;;;3.84;100.00;97460.00;5109187;28;20609;-67
2021/12/07 10:34:54;;;;;;;57.80;6.97;;;;;;;3.90;100.00;97460.94;5109145;28;20686;-67
2021/12/07 10:37:21;;;;;;;30.43;4.93;;;;;;;3.83;100.00;97462.88;5109387;28;20659;-67
2021/12/07 10:39:51;;;;;;;17.60;4.07;;;;;;;3.70;100.00;97463.91;5109410;28;20617;-67
2021/12/07 10:42:20;;;;;;;56.17;5.00;;;;;;;3.60;100.00;97461.03;5109287;28;20677;-66
2021/12/07 10:44:47;;;;;;;54.90;6.17;;;;;;;3.62;100.00;97467.69;5117830;28;20605;-67
2021/12/07 10:47:16;;;;;;;38.73;8.10;;;;;;;3.63;100.00;97464.03;5117684;28;20635;-67
2021/12/07 10:49:49;;;;;;;38.47;5.03;;;;;;;3.64;100.00;97470.94;5128377;28;20600;-67
2021/12/07 10:52:21;;;;;;;52.63;5.63;;;;;;;3.55;100.00;97460.94;5124505;28;20610;-68
2021/12/07 10:54:55;;;;;;;61.93;6.40;;;;;;;3.79;100.00;97459.91;5121564;28;20609;-70
2021/12/07 10:57:24;;;;;;;35.07;4.77;;;;;;;3.82;100.00;97467.34;5121810;28;20613;-69
2021/12/07 10:59:59;;;;;;;26.93;4.50;;;;;;;3.69;100.00;97468.38;5125076;28;20585;-68
2021/12/07 11:02:33;;;;;;;46.13;5.30;;;;;;;3.84;100.00;97465.28;5123833;28;21311;-68
2021/12/07 11:05:00;;;;;;;18.97;3.90;;;;;;;3.82;100.00;97462.06;5121586;28;20688;-69
2021/12/07 11:07:29;;;;;;;21.77;3.73;;;;;;;3.77;100.00;97459.34;5101083;28;20609;-68
2021/12/07 11:10:04;;;;;;;32.33;4.67;;;;;;;3.74;100.00;97460.56;5121549;28;21125;-69
2021/12/07 11:12:37;;;;;;;40.17;4.90;;;;;;;3.94;100.00;97462.88;5122962;28;20608;-69
2021/12/07 11:15:12;;;;;;;70.47;5.50;;;;;;;3.94;100.00;97452.31;5124874;28;20608;-68
2021/12/07 11:17:40;;;;;;;68.10;6.97;;;;;;;3.91;100.00;97455.41;5121703;28;20616;-68
2021/12/07 11:20:08;;;;;;;19.13;3.17;;;;;;;3.81;100.00;97461.25;5127936;28;20619;-67
2021/12/07 11:22:38;;;;;;;71.30;6.50;;;;;;;3.80;100.00;97461.50;5122108;28;20735;-68
2021/12/07 11:25:07;;;;;;;13.93;3.00;;;;;;;3.68;100.00;97460.72;5121047;28;20605;-68
2021/12/07 11:30:20;;;;;;;24.27;4.00;;;;;;;3.90;100.00;97453.78;5124488;28;20596;-68
2021/12/07 11:32:55;;;;;;;62.07;4.83;;;;;;;3.72;100.00;97456.56;5120998;28;21128;-68
2021/12/07 11:35:26;;;;;;;31.03;3.87;;;;;;;3.73;100.00;97450.25;5121041;28;21129;-70
2021/12/07 11:37:55;;;;;;;20.23;2.63;;;;;;;3.89;100.00;97457.47;5124568;28;20604;-68
2021/12/07 11:40:26;;;;;;;31.87;3.73;;;;;;;3.79;100.00;97450.13;5123690;28;20691;-69
2021/12/07 11:42:52;;;;;;;51.70;4.80;;;;;;;3.77;100.00;97454.84;5120929;28;20670;-67
2021/12/07 11:45:22;;;;;;;20.27;3.70;;;;;;;3.69;100.00;97447.25;5120725;28;20619;-68
2021/12/07 11:47:53;;;;;;;28.60;3.43;;;;;;;3.84;100.00;97462.63;5124162;28;20622;-68
2021/12/07 11:50:28;;;;;;;74.63;6.10;;;;;;;3.97;100.00;97454.47;5113064;28;20601;-67
2021/12/07 11:52:57;;;;;;;51.03;4.57;;;;;;;3.87;100.00;97454.25;5120655;28;20588;-67
2021/12/07 11:55:25;;;;;;;20.33;3.20;;;;;;;4.00;100.00;97459.28;5120900;28;20621;-67
2021/12/07 11:57:53;;;;;;;91.27;6.50;;;;;;;4.17;100.00;97440.91;5123918;28;20719;-67
2021/12/07 12:00:23;;;;;;;61.90;4.93;;;;;;;4.40;100.00;97447.94;5123340;28;20597;-67
2021/12/07 12:02:51;;;;;;;66.40;6.03;;;;;;;4.35;100.00;97438.91;5119437;28;20649;-67
2021/12/07 12:05:19;;;;;;;64.77;5.70;;;;;;;4.06;100.00;97445.16;5120129;28;20636;-67
2021/12/07 12:07:48;;;;;;;66.97;5.80;;;;;;;4.14;100.00;97442.16;5120099;28;20597;-67
2021/12/07 12:10:18;;;;;;;29.47;3.67;;;;;;;4.23;100.00;97438.13;5120177;28;20612;-67
2021/12/07 12:12:57;;;;;;;36.60;3.43;;;;;;;4.33;100.00;97445.47;5120121;28;21526;-67
2021/12/07 12:15:53;;;;;;;36.73;4.40;;;;;;;4.21;100.00;97448.09;5120817;28;20619;-67
2021/12/07 12:18:32;;;;;;;27.70;3.43;;;;;;;4.42;100.00;97451.19;5123201;28;20683;-67
2021/12/07 12:21:07;;;;;;;38.97;4.20;;;;;;;4.61;100.00;97456.03;5120093;28;20616;-66
2021/12/07 12:23:46;;;;;;;52.87;4.83;;;;;;;4.69;100.00;97463.59;5121909;28;20656;-67
2021/12/07 12:26:14;;;;;;;22.13;3.50;;;;;;;4.68;100.00;97469.94;5123240;28;20608;-67
2021/12/07 12:28:47;;;;;;;89.10;5.80;;;;;;;4.17;100.00;97462.03;5120383;28;20598;-66
2021/12/07 12:31:14;;;;;;;15.67;2.27;;;;;;;4.07;100.00;97462.63;5119771;28;20640;-66
2021/12/07 12:33:52;;;;;;;31.77;3.73;;;;;;;4.05;100.00;97461.25;5122771;28;20583;-67
2021/12/07 12:36:20;;;;;;;31.23;3.47;;;;;;;3.97;100.00;97453.66;5122755;28;20649;-66
2021/12/07 12:38:55;;;;;;;37.60;3.83;;;;;;;3.98;100.00;97461.38;5119571;28;20613;-67
2021/12/07 12:41:22;;;;;;;36.67;3.47;;;;;;;3.91;100.00;97460.69;5119881;28;20589;-67
2021/12/07 12:43:53;;;;;;;36.73;3.57;;;;;;;4.09;100.00;97463.19;5123108;28;20601;-66
2021/12/07 12:46:22;;;;;;;57.93;4.53;;;;;;;4.07;100.00;97465.28;5122572;28;20619;-67
2021/12/07 12:48:53;;;;;;;37.23;3.97;;;;;;;4.16;100.00;97466.50;5122631;28;20618;-68
2021/12/07 12:51:22;;;;;;;30.27;2.87;;;;;;;4.24;100.00;97462.72;5122812;28;20602;-67